Terminal Aerodrome Forecast
Issued by NWS

Home | Current Version | Previous Version | Text Only | Print | Product List | Glossary On
Versions: 1 2 3 4 5 6 7 8 9 10 11 12
000
FTUS44 KOUN 110527
TAFWWR
TAF
KWWR 110527Z 1106/1206 17021G30KT P6SM SCT250
     FM111300 22010KT P6SM BKN250
     FM111800 35016KT P6SM BKN250
     FM120000 02005KT P6SM SKC=

USA.gov is the U.S. government's official web portal to all federal, state and local government web resources and services.